Time,TemperatureF,DewpointF,PressureIn,WindDirection,WindDirectionDegrees,WindSpeedMPH,WindSpeedGustMPH,Humidity,HourlyPrecipIn,Conditions,Clouds,dailyrainin,SoftwareType,DateUTC
2013-10-02 00:12:00,52.7,38.8,29.96,West,270,5.8,-999.0,59,-99.99,,,0.00,Acu-Link.com,2013-10-02 05:12:00,
2013-10-02 00:27:00,53.1,38.7,29.97,West,270,5.8,-999.0,58,-99.99,,,0.00,Acu-Link.com,2013-10-02 05:27:00,
2013-10-02 00:42:00,53.2,38.4,29.98,West,270,4.2,-999.0,57,-99.99,,,0.00,Acu-Link.com,2013-10-02 05:42:00,
2013-10-02 00:58:00,52.5,38.6,29.98,West,270,4.2,-999.0,59,-99.99,,,0.00,Acu-Link.com,2013-10-02 05:58:00,
2013-10-02 01:13:00,51.4,38.4,29.98,West,270,5.3,-999.0,61,-99.99,,,0.00,Acu-Link.com,2013-10-02 06:13:00,
2013-10-02 01:30:00,51.4,38.8,29.99,West,270,5.3,-999.0,62,-99.99,,,0.00,Acu-Link.com,2013-10-02 06:30:00,
2013-10-02 01:45:00,52.0,38.1,29.98,West,270,7.3,-999.0,59,-99.99,,,0.00,Acu-Link.com,2013-10-02 06:45:00,
2013-10-02 02:00:00,53.2,38.4,29.98,West,270,10.4,-999.0,57,-99.99,,,0.00,Acu-Link.com,2013-10-02 07:00:00,
2013-10-02 02:15:00,53.2,38.4,29.99,West,270,7.8,-999.0,57,-99.99,,,0.00,Acu-Link.com,2013-10-02 07:15:00,
2013-10-02 02:30:00,52.2,38.3,30.00,West,270,6.3,-999.0,59,-99.99,,,0.00,Acu-Link.com,2013-10-02 07:30:00,
2013-10-02 02:46:00,51.6,38.2,30.00,West,270,5.3,-999.0,60,-99.99,,,0.00,Acu-Link.com,2013-10-02 07:46:00,
2013-10-02 03:01:00,50.9,38.4,29.99,West,270,4.7,-999.0,62,-99.99,,,0.00,Acu-Link.com,2013-10-02 08:01:00,
2013-10-02 03:17:00,50.5,38.4,30.00,West,270,5.8,-999.0,63,-99.99,,,0.00,Acu-Link.com,2013-10-02 08:17:00,
2013-10-02 03:33:00,50.7,38.2,30.00,West,270,5.8,-999.0,62,-99.99,,,0.00,Acu-Link.com,2013-10-02 08:33:00,
2013-10-02 03:48:00,50.2,38.1,30.00,West,270,5.8,-999.0,63,-99.99,,,0.00,Acu-Link.com,2013-10-02 08:48:00,
2013-10-02 04:03:00,50.2,38.1,30.00,West,270,5.8,-999.0,63,-99.99,,,0.00,Acu-Link.com,2013-10-02 09:03:00,
2013-10-02 04:18:00,49.8,38.1,30.00,West,270,5.8,-999.0,64,-99.99,,,0.00,Acu-Link.com,2013-10-02 09:18:00,
2013-10-02 04:34:00,47.7,38.0,30.02,West,270,6.8,-999.0,69,-99.99,,,0.00,Acu-Link.com,2013-10-02 09:34:00,
2013-10-02 04:49:00,46.8,37.9,30.03,West,270,5.8,-999.0,71,-99.99,,,0.00,Acu-Link.com,2013-10-02 09:49:00,
2013-10-02 05:04:00,46.4,37.5,30.03,West,270,4.7,-999.0,71,-99.99,,,0.00,Acu-Link.com,2013-10-02 10:04:00,
2013-10-02 05:19:00,46.4,37.9,30.03,West,270,4.7,-999.0,72,-99.99,,,0.00,Acu-Link.com,2013-10-02 10:19:00,
2013-10-02 05:34:00,46.2,37.7,30.03,West,270,6.3,-999.0,72,-99.99,,,0.00,Acu-Link.com,2013-10-02 10:34:00,
2013-10-02 05:49:00,46.6,37.7,30.05,West,270,4.2,-999.0,71,-99.99,,,0.00,Acu-Link.com,2013-10-02 10:49:00,
2013-10-02 06:04:00,46.6,37.7,30.05,West,270,6.8,-999.0,71,-99.99,,,0.00,Acu-Link.com,2013-10-02 11:04:00,
2013-10-02 06:20:00,46.2,37.7,30.06,West,270,2.2,-999.0,72,-99.99,,,0.00,Acu-Link.com,2013-10-02 11:20:00,
2013-10-02 06:35:00,46.2,37.3,30.06,West,270,3.2,-999.0,71,-99.99,,,0.00,Acu-Link.com,2013-10-02 11:35:00,
2013-10-02 06:50:00,46.4,37.5,30.06,West,270,1.7,-999.0,71,-99.99,,,0.00,Acu-Link.com,2013-10-02 11:50:00,
2013-10-02 07:05:00,45.0,37.2,30.07,West,270,0.0,-999.0,74,-99.99,,,0.00,Acu-Link.com,2013-10-02 12:05:00,
2013-10-02 07:20:00,46.9,37.3,30.07,West,270,2.7,-999.0,69,-99.99,,,0.00,Acu-Link.com,2013-10-02 12:20:00,
2013-10-02 07:35:00,49.1,37.8,30.08,West,270,3.2,-999.0,65,-99.99,,,0.00,Acu-Link.com,2013-10-02 12:35:00,
2013-10-02 07:50:00,50.4,39.1,30.08,West,270,2.7,-999.0,65,-99.99,,,0.00,Acu-Link.com,2013-10-02 12:50:00,
2013-10-02 08:05:00,51.6,41.4,30.08,West,270,0.0,-999.0,68,-99.99,,,0.00,Acu-Link.com,2013-10-02 13:05:00,
2013-10-02 08:20:00,55.6,42.8,30.08,West,270,1.1,-999.0,62,-99.99,,,0.00,Acu-Link.com,2013-10-02 13:20:00,
2013-10-02 08:36:00,58.3,43.1,30.09,West,270,0.0,-999.0,57,-99.99,,,0.00,Acu-Link.com,2013-10-02 13:36:00,
2013-10-02 08:51:00,55.0,45.0,30.09,West,270,0.0,-999.0,69,-99.99,,,0.00,Acu-Link.com,2013-10-02 13:51:00,
2013-10-02 09:06:00,56.3,42.6,30.09,West,270,2.2,-999.0,60,-99.99,,,0.00,Acu-Link.com,2013-10-02 14:06:00,
2013-10-02 09:21:00,57.4,44.5,30.09,West,270,1.7,-999.0,62,-99.99,,,0.00,Acu-Link.com,2013-10-02 14:21:00,
2013-10-02 09:36:00,59.2,43.0,30.09,West,270,1.7,-999.0,55,-99.99,,,0.00,Acu-Link.com,2013-10-02 14:36:00,
2013-10-02 09:51:00,60.8,44.5,30.10,West,270,0.0,-999.0,55,-99.99,,,0.00,Acu-Link.com,2013-10-02 14:51:00,
2013-10-02 10:06:00,63.9,46.9,30.10,West,270,0.0,-999.0,54,-99.99,,,0.00,Acu-Link.com,2013-10-02 15:06:00,
2013-10-02 10:21:00,63.9,50.2,30.11,West,270,3.2,-999.0,61,-99.99,,,0.00,Acu-Link.com,2013-10-02 15:21:00,
2013-10-02 10:36:00,65.5,46.9,30.11,SSE,157,2.7,-999.0,51,-99.99,,,0.00,Acu-Link.com,2013-10-02 15:36:00,
2013-10-02 10:52:00,65.3,44.5,30.10,South,180,2.7,-999.0,47,-99.99,,,0.00,Acu-Link.com,2013-10-02 15:52:00,
2013-10-02 11:07:00,66.2,44.2,30.10,SSW,202,3.7,-999.0,45,-99.99,,,0.00,Acu-Link.com,2013-10-02 16:07:00,
2013-10-02 11:22:00,66.4,40.7,30.09,SW,225,4.7,-999.0,39,-99.99,,,0.00,Acu-Link.com,2013-10-02 16:22:00,
2013-10-02 11:37:00,66.9,40.5,30.09,SE,135,6.3,-999.0,38,-99.99,,,0.00,Acu-Link.com,2013-10-02 16:37:00,
2013-10-02 11:52:00,67.6,41.8,30.08,SSE,157,3.7,-999.0,39,-99.99,,,0.00,Acu-Link.com,2013-10-02 16:52:00,
2013-10-02 12:07:00,67.3,41.5,30.08,South,180,1.7,-999.0,39,-99.99,,,0.00,Acu-Link.com,2013-10-02 17:07:00,
2013-10-02 12:22:00,69.1,42.4,30.07,South,180,2.2,-999.0,38,-99.99,,,0.00,Acu-Link.com,2013-10-02 17:22:00,
2013-10-02 12:37:00,68.5,41.2,30.08,WSW,247,3.7,-999.0,37,-99.99,,,0.00,Acu-Link.com,2013-10-02 17:37:00,
2013-10-02 12:52:00,69.1,38.8,30.06,SSW,202,3.2,-999.0,33,-99.99,,,0.00,Acu-Link.com,2013-10-02 17:52:00,
2013-10-02 13:08:00,69.1,41.0,30.06,WSW,247,3.7,-999.0,36,-99.99,,,0.00,Acu-Link.com,2013-10-02 18:08:00,
2013-10-02 13:23:00,69.6,40.0,30.06,SSW,202,2.7,-999.0,34,-99.99,,,0.00,Acu-Link.com,2013-10-02 18:23:00,
2013-10-02 13:38:00,69.4,41.3,30.05,SSE,157,2.7,-999.0,36,-99.99,,,0.00,Acu-Link.com,2013-10-02 18:38:00,
2013-10-02 13:53:00,69.6,44.8,30.04,SE,135,1.7,-999.0,41,-99.99,,,0.00,Acu-Link.com,2013-10-02 18:53:00,
2013-10-02 14:08:00,70.3,42.1,30.04,South,180,3.2,-999.0,36,-99.99,,,0.00,Acu-Link.com,2013-10-02 19:08:00,
2013-10-02 14:23:00,70.5,40.8,30.04,SSW,202,3.2,-999.0,34,-99.99,,,0.00,Acu-Link.com,2013-10-02 19:23:00,
2013-10-02 14:38:00,70.3,40.6,30.04,SW,225,5.3,-999.0,34,-99.99,,,0.00,Acu-Link.com,2013-10-02 19:38:00,
2013-10-02 14:53:00,70.5,42.3,30.03,South,180,5.8,-999.0,36,-99.99,,,0.00,Acu-Link.com,2013-10-02 19:53:00,
2013-10-02 15:08:00,70.9,42.6,30.03,SSW,202,4.2,-999.0,36,-99.99,,,0.00,Acu-Link.com,2013-10-02 20:08:00,
2013-10-02 15:23:00,70.3,42.8,30.01,SSE,157,4.2,-999.0,37,-99.99,,,0.00,Acu-Link.com,2013-10-02 20:23:00,
2013-10-02 15:39:00,70.7,40.9,30.00,SSE,157,4.2,-999.0,34,-99.99,,,0.00,Acu-Link.com,2013-10-02 20:39:00,
2013-10-02 15:54:00,71.2,40.6,30.00,South,180,2.2,-999.0,33,-99.99,,,0.00,Acu-Link.com,2013-10-02 20:54:00,
2013-10-02 16:09:00,70.5,42.3,29.99,SSW,202,1.1,-999.0,36,-99.99,,,0.00,Acu-Link.com,2013-10-02 21:09:00,
2013-10-02 16:24:00,70.2,42.0,29.99,SSE,157,2.7,-999.0,36,-99.99,,,0.00,Acu-Link.com,2013-10-02 21:24:00,
2013-10-02 16:39:00,70.0,41.8,29.98,SSE,157,1.7,-999.0,36,-99.99,,,0.00,Acu-Link.com,2013-10-02 21:39:00,
2013-10-02 16:54:00,70.0,43.2,29.99,SSE,157,0.0,-999.0,38,-99.99,,,0.00,Acu-Link.com,2013-10-02 21:54:00,
2013-10-02 17:09:00,69.1,42.4,29.98,SSE,157,1.7,-999.0,38,-99.99,,,0.00,Acu-Link.com,2013-10-02 22:09:00,
2013-10-02 17:24:00,68.7,44.0,29.98,SSE,157,0.0,-999.0,41,-99.99,,,0.00,Acu-Link.com,2013-10-02 22:24:00,
2013-10-02 17:39:00,68.0,45.3,29.98,SSE,157,1.1,-999.0,44,-99.99,,,0.00,Acu-Link.com,2013-10-02 22:39:00,
2013-10-02 17:55:00,67.6,46.1,29.97,SSE,157,0.0,-999.0,46,-99.99,,,0.00,Acu-Link.com,2013-10-02 22:55:00,
2013-10-02 18:10:00,69.6,45.5,29.97,SSE,157,1.7,-999.0,42,-99.99,,,0.00,Acu-Link.com,2013-10-02 23:10:00,
2013-10-02 18:25:00,66.6,44.0,29.98,SSE,157,0.0,-999.0,44,-99.99,,,0.00,Acu-Link.com,2013-10-02 23:25:00,
2013-10-02 18:40:00,63.5,44.0,29.98,SSE,157,0.0,-999.0,49,-99.99,,,0.00,Acu-Link.com,2013-10-02 23:40:00,
2013-10-02 18:55:00,61.2,42.9,29.99,SSE,157,0.0,-999.0,51,-99.99,,,0.00,Acu-Link.com,2013-10-02 23:55:00,
2013-10-02 19:10:00,59.2,43.5,29.99,SSE,157,0.0,-999.0,56,-99.99,,,0.00,Acu-Link.com,2013-10-03 00:10:00,
2013-10-02 19:25:00,60.6,46.6,29.98,SSE,157,2.2,-999.0,60,-99.99,,,0.00,Acu-Link.com,2013-10-03 00:25:00,
2013-10-02 19:40:00,59.5,45.2,29.98,SSE,157,0.0,-999.0,59,-99.99,,,0.00,Acu-Link.com,2013-10-03 00:40:00,
2013-10-02 19:55:00,58.3,46.2,29.97,SSE,157,0.0,-999.0,64,-99.99,,,0.00,Acu-Link.com,2013-10-03 00:55:00,
2013-10-02 20:11:00,57.4,46.5,29.97,SSE,157,1.1,-999.0,67,-99.99,,,0.00,Acu-Link.com,2013-10-03 01:11:00,
2013-10-02 20:26:00,56.7,45.9,29.97,SSE,157,1.1,-999.0,67,-99.99,,,0.00,Acu-Link.com,2013-10-03 01:26:00,
2013-10-02 20:41:00,55.9,45.5,29.96,SSE,157,0.0,-999.0,68,-99.99,,,0.00,Acu-Link.com,2013-10-03 01:41:00,
2013-10-02 20:56:00,55.6,45.2,29.96,SSE,157,2.7,-999.0,68,-99.99,,,0.00,Acu-Link.com,2013-10-03 01:56:00,
2013-10-02 21:11:00,55.6,44.8,29.96,SSE,157,0.0,-999.0,67,-99.99,,,0.00,Acu-Link.com,2013-10-03 02:11:00,
2013-10-02 21:26:00,55.4,44.6,29.96,SSE,157,0.0,-999.0,67,-99.99,,,0.00,Acu-Link.com,2013-10-03 02:26:00,
2013-10-02 21:41:00,55.2,44.4,29.95,SSE,157,0.0,-999.0,67,-99.99,,,0.00,Acu-Link.com,2013-10-03 02:41:00,
2013-10-02 21:56:00,55.2,44.0,29.95,SSE,157,1.1,-999.0,66,-99.99,,,0.00,Acu-Link.com,2013-10-03 02:56:00,
2013-10-02 22:11:00,54.3,44.0,29.94,SSE,157,1.7,-999.0,68,-99.99,,,0.00,Acu-Link.com,2013-10-03 03:11:00,
2013-10-02 22:27:00,54.1,44.2,29.94,SSE,157,2.7,-999.0,69,-99.99,,,0.00,Acu-Link.com,2013-10-03 03:27:00,
2013-10-02 22:42:00,54.7,44.0,29.94,SSE,157,3.7,-999.0,67,-99.99,,,0.00,Acu-Link.com,2013-10-03 03:42:00,
2013-10-02 22:57:00,55.4,43.8,29.94,SSE,157,3.2,-999.0,65,-99.99,,,0.00,Acu-Link.com,2013-10-03 03:57:00,
2013-10-02 23:12:00,55.4,44.2,29.94,SSE,157,3.7,-999.0,66,-99.99,,,0.00,Acu-Link.com,2013-10-03 04:12:00,
2013-10-02 23:27:00,55.8,44.2,29.94,ESE,112,4.2,-999.0,65,-99.99,,,0.00,Acu-Link.com,2013-10-03 04:27:00,
2013-10-02 23:42:00,56.3,44.7,29.94,ESE,112,3.7,-999.0,65,-99.99,,,0.00,Acu-Link.com,2013-10-03 04:42:00,
2013-10-02 23:57:00,56.3,45.1,29.94,ESE,112,3.7,-999.0,66,-99.99,,,0.00,Acu-Link.com,2013-10-03 04:57:00,